Time;durP1;ratioP1;P1;durP2;ratioP2;P2;SDS_P1;SDS_P2;PMS_P1;PMS_P2;Temp;Humidity;BMP_temperature;BMP_pressure;BME280_temperature;BME280_humidity;BME280_pressure;Samples;Min_cycle;Max_cycle;Signal;HPM_P1;HPM_P2
2021/05/12 00:02:08;;;;;;;23.50;21.23;;;16.00;99.90;;;;;;5071745;28;20186;-75
2021/05/12 00:04:34;;;;;;;22.90;20.80;;;15.90;99.90;;;;;;5071654;28;20688;-75
2021/05/12 00:07:00;;;;;;;22.80;20.80;;;16.00;99.90;;;;;;5070979;28;20186;-75
2021/05/12 00:09:26;;;;;;;24.00;21.50;;;16.00;99.90;;;;;;5072411;28;20169;-75
2021/05/12 00:11:51;;;;;;;23.60;21.30;;;16.00;99.90;;;;;;5072331;28;20177;-74
2021/05/12 00:14:17;;;;;;;23.87;21.57;;;15.90;99.90;;;;;;5071551;28;20185;-75
2021/05/12 00:16:43;;;;;;;23.77;21.10;;;16.00;99.90;;;;;;5072089;28;20545;-75
2021/05/12 00:19:09;;;;;;;24.27;21.87;;;16.00;99.90;;;;;;5071161;28;20256;-75
2021/05/12 00:21:46;;;;;;;24.43;21.87;;;15.90;99.90;;;;;;5072313;28;20412;-75
2021/05/12 00:24:11;;;;;;;25.17;22.90;;;15.90;99.90;;;;;;5070855;28;20193;-75
2021/05/12 00:26:39;;;;;;;25.03;22.60;;;15.90;99.90;;;;;;5053361;28;20469;-75
2021/05/12 00:29:07;;;;;;;25.77;23.17;;;15.90;99.90;;;;;;5051277;28;20515;-75
2021/05/12 00:31:33;;;;;;;25.27;22.77;;;15.90;99.90;;;;;;5052074;28;20414;-75
2021/05/12 00:33:59;;;;;;;25.30;22.90;;;15.90;99.90;;;;;;5050716;28;20757;-76
2021/05/12 00:36:25;;;;;;;27.00;23.60;;;15.90;99.90;;;;;;5052131;28;20447;-74
2021/05/12 00:38:51;;;;;;;26.27;23.63;;;15.90;99.90;;;;;;5051727;28;20225;-74
2021/05/12 00:41:17;;;;;;;25.00;22.37;;;15.80;99.90;;;;;;5051150;28;21344;-75
2021/05/12 00:43:43;;;;;;;26.27;23.70;;;15.80;99.90;;;;;;5051825;28;20996;-75
2021/05/12 00:46:09;;;;;;;25.97;23.03;;;15.80;99.90;;;;;;5050967;28;20309;-75
2021/05/12 00:48:36;;;;;;;26.40;23.70;;;15.80;99.90;;;;;;5051628;28;20177;-74
2021/05/12 00:51:03;;;;;;;24.90;22.50;;;15.80;99.90;;;;;;5051070;28;20410;-75
2021/05/12 00:53:28;;;;;;;26.60;23.90;;;15.90;99.90;;;;;;5050957;28;20430;-75
2021/05/12 00:55:54;;;;;;;25.60;23.00;;;15.90;99.90;;;;;;5051763;28;20401;-75
2021/05/12 00:58:20;;;;;;;25.90;23.20;;;15.90;99.90;;;;;;5051199;28;20177;-75
2021/05/12 01:00:46;;;;;;;25.77;23.07;;;15.90;99.90;;;;;;5033954;28;20186;-75
2021/05/12 01:03:12;;;;;;;26.13;23.53;;;15.90;99.90;;;;;;5050156;28;20198;-74
2021/05/12 01:06:01;;;;;;;25.50;22.90;;;15.90;99.90;;;;;;5051407;28;20561;-75
2021/05/12 01:08:28;;;;;;;26.57;23.90;;;15.90;99.90;;;;;;5038523;28;20432;-75
2021/05/12 01:10:55;;;;;;;26.50;23.83;;;15.90;99.90;;;;;;5051681;28;20400;-75
2021/05/12 01:13:21;;;;;;;25.43;22.87;;;15.90;99.90;;;;;;5050469;28;20993;-75
2021/05/12 01:15:47;;;;;;;25.87;23.27;;;15.90;99.90;;;;;;5053122;28;20527;-75
2021/05/12 01:18:18;;;;;;;26.20;23.40;;;15.90;99.90;;;;;;5054023;28;20554;-75
2021/05/12 01:20:55;;;;;;;28.10;24.80;;;15.90;99.90;;;;;;5055056;28;20175;-75
2021/05/12 01:23:26;;;;;;;28.63;24.00;;;15.80;99.90;;;;;;5054645;28;20470;-75
2021/05/12 01:25:53;;;;;;;29.27;25.90;;;15.90;99.90;;;;;;5055020;28;20457;-75
2021/05/12 01:28:21;;;;;;;30.80;27.20;;;15.90;99.90;;;;;;5054157;28;21099;-75
2021/05/12 01:31:16;;;;;;;28.77;25.57;;;15.90;99.90;;;;;;5055166;28;20424;-75
2021/05/12 01:33:43;;;;;;;30.10;27.00;;;15.90;99.90;;;;;;5055211;28;20406;-75
2021/05/12 01:36:10;;;;;;;29.07;26.07;;;15.90;99.90;;;;;;5054273;28;20394;-75
2021/05/12 01:38:38;;;;;;;29.50;26.47;;;15.90;99.90;;;;;;5054713;28;20414;-75
2021/05/12 01:41:05;;;;;;;30.77;27.47;;;15.90;99.90;;;;;;5054120;28;20498;-75
2021/05/12 01:43:32;;;;;;;30.90;27.70;;;15.90;99.90;;;;;;5054871;28;20461;-75
2021/05/12 01:45:59;;;;;;;32.00;27.23;;;15.80;99.90;;;;;;5054352;28;20422;-79
2021/05/12 01:48:26;;;;;;;28.70;25.70;;;15.90;99.90;;;;;;5054542;28;20410;-75
2021/05/12 01:50:52;;;;;;;32.90;27.70;;;15.90;99.90;;;;;;5054560;28;20521;-75
2021/05/12 01:53:18;;;;;;;32.87;27.70;;;15.90;99.90;;;;;;5053669;28;20448;-76
2021/05/12 01:55:46;;;;;;;31.70;28.07;;;15.90;99.90;;;;;;5054691;28;20468;-75
2021/05/12 01:58:11;;;;;;;30.63;27.37;;;15.80;99.90;;;;;;5053883;28;20403;-75
2021/05/12 02:00:43;;;;;;;29.77;25.87;;;15.80;99.90;;;;;;5054668;28;20468;-75
2021/05/12 02:03:09;;;;;;;30.73;27.43;;;15.80;99.90;;;;;;5053523;28;20207;-75
2021/05/12 02:05:40;;;;;;;33.17;28.47;;;15.80;99.90;;;;;;5054525;28;20771;-75
2021/05/12 02:08:08;;;;;;;31.90;28.40;;;15.80;99.90;;;;;;5053722;28;20752;-75
2021/05/12 02:10:35;;;;;;;31.70;28.23;;;15.80;99.90;;;;;;5036964;28;20761;-75
2021/05/12 02:13:00;;;;;;;34.40;29.50;;;15.70;99.90;;;;;;5053765;28;20409;-79
2021/05/12 02:15:26;;;;;;;36.27;31.83;;;15.70;99.90;;;;;;5053644;28;20778;-75
2021/05/12 02:17:52;;;;;;;35.57;31.80;;;15.70;99.90;;;;;;5054125;28;20191;-75
2021/05/12 02:20:22;;;;;;;34.97;31.37;;;15.70;99.90;;;;;;5053440;28;20415;-75
2021/05/12 02:22:48;;;;;;;35.87;32.13;;;15.70;99.90;;;;;;5036639;28;20811;-75
2021/05/12 02:25:14;;;;;;;39.53;30.93;;;15.70;99.90;;;;;;5053228;28;20449;-75
2021/05/12 02:27:40;;;;;;;41.33;31.67;;;15.70;99.90;;;;;;5053370;28;20186;-75
2021/05/12 02:30:09;;;;;;;37.30;33.30;;;15.60;99.90;;;;;;5053306;28;20441;-75
2021/05/12 02:32:35;;;;;;;38.80;33.17;;;15.60;99.90;;;;;;5053896;28;20473;-75
2021/05/12 02:35:00;;;;;;;37.63;33.57;;;15.60;99.90;;;;;;5053863;28;20433;-79
2021/05/12 02:37:27;;;;;;;39.93;33.07;;;15.60;99.90;;;;;;5053324;28;20445;-75
2021/05/12 02:39:54;;;;;;;35.33;31.10;;;15.60;99.90;;;;;;5053700;28;20418;-75
2021/05/12 02:42:19;;;;;;;35.00;30.60;;;15.50;99.90;;;;;;5052910;28;20393;-75
2021/05/12 02:44:45;;;;;;;37.50;33.13;;;15.50;99.90;;;;;;5053472;28;20525;-75
2021/05/12 02:47:11;;;;;;;40.97;33.80;;;15.50;99.90;;;;;;5052823;28;20421;-75
2021/05/12 02:49:38;;;;;;;41.70;34.07;;;15.50;99.90;;;;;;5053683;28;20248;-75
2021/05/12 02:52:05;;;;;;;35.60;31.33;;;15.50;99.90;;;;;;5035388;28;20456;-80
2021/05/12 02:54:31;;;;;;;36.30;31.70;;;15.50;99.90;;;;;;5053543;28;20475;-75
2021/05/12 02:56:57;;;;;;;36.40;32.00;;;15.50;99.90;;;;;;5053542;28;20426;-75
2021/05/12 02:59:23;;;;;;;35.80;31.10;;;15.50;99.90;;;;;;5052388;28;20588;-75
2021/05/12 03:01:49;;;;;;;34.77;30.83;;;15.50;99.90;;;;;;5053643;28;20178;-75
2021/05/12 03:04:14;;;;;;;35.77;30.80;;;15.50;99.90;;;;;;5018169;28;20461;-75
2021/05/12 03:06:40;;;;;;;38.80;31.53;;;15.50;99.90;;;;;;5053543;28;20647;-76
2021/05/12 03:09:07;;;;;;;34.50;30.33;;;15.50;99.90;;;;;;5052516;28;20188;-80
2021/05/12 03:11:33;;;;;;;34.77;31.07;;;15.50;99.90;;;;;;5053220;28;20579;-75
2021/05/12 03:14:00;;;;;;;33.73;30.20;;;15.40;99.90;;;;;;5053104;28;20496;-75
2021/05/12 03:16:25;;;;;;;33.83;30.33;;;15.40;99.90;;;;;;5034576;28;20398;-75
2021/05/12 03:18:51;;;;;;;33.10;29.33;;;15.40;99.90;;;;;;5053144;28;20463;-75
2021/05/12 03:21:17;;;;;;;34.80;30.63;;;15.30;99.90;;;;;;5052205;28;20170;-76
2021/05/12 03:23:42;;;;;;;34.70;30.83;;;15.30;99.90;;;;;;5053161;28;20202;-75
2021/05/12 03:26:08;;;;;;;34.67;30.60;;;15.30;99.90;;;;;;5060009;28;20221;-76
2021/05/12 03:28:34;;;;;;;33.10;29.63;;;15.30;99.90;;;;;;5072896;28;20693;-75
2021/05/12 03:31:00;;;;;;;32.53;28.73;;;15.20;99.90;;;;;;5072573;28;20226;-75
2021/05/12 03:33:25;;;;;;;37.93;30.50;;;15.20;99.90;;;;;;5072121;28;20830;-75
2021/05/12 03:35:51;;;;;;;35.63;29.67;;;15.20;99.90;;;;;;5072835;28;20172;-75
2021/05/12 03:38:17;;;;;;;32.80;29.20;;;15.20;99.90;;;;;;5070673;28;20177;-76
2021/05/12 03:40:43;;;;;;;32.80;29.27;;;15.20;99.90;;;;;;5072742;28;20196;-75
2021/05/12 03:43:09;;;;;;;33.43;29.87;;;15.20;99.90;;;;;;5071904;28;20212;-79
2021/05/12 03:45:36;;;;;;;31.20;28.00;;;15.20;99.90;;;;;;5072851;28;20504;-75
2021/05/12 03:48:02;;;;;;;32.33;28.77;;;15.20;99.90;;;;;;5072577;28;20418;-75
2021/05/12 03:50:29;;;;;;;35.57;31.50;;;15.20;99.90;;;;;;5071817;28;21119;-75
2021/05/12 03:52:55;;;;;;;34.80;28.33;;;15.20;99.90;;;;;;5072279;28;20485;-75
2021/05/12 03:55:22;;;;;;;33.83;30.20;;;15.20;99.90;;;;;;5071751;28;20512;-75
2021/05/12 03:57:48;;;;;;;36.47;32.50;;;15.20;99.90;;;;;;5072526;28;20888;-75
2021/05/12 04:00:15;;;;;;;34.60;28.47;;;15.20;99.90;;;;;;5070067;28;20419;-75
2021/05/12 04:02:42;;;;;;;35.13;31.43;;;15.10;99.90;;;;;;5072209;28;20918;-75
2021/05/12 04:05:10;;;;;;;28.97;25.87;;;15.10;99.90;;;;;;5071615;28;21069;-79
2021/05/12 04:07:36;;;;;;;29.73;25.60;;;15.10;99.90;;;;;;5072492;28;20423;-76
2021/05/12 04:10:03;;;;;;;31.03;27.70;;;15.10;99.90;;;;;;5072717;28;20414;-75
2021/05/12 04:12:29;;;;;;;30.83;26.20;;;15.00;99.90;;;;;;5072090;28;20491;-75
2021/05/12 04:14:55;;;;;;;27.17;23.53;;;15.00;99.90;;;;;;5072220;28;20545;-76
2021/05/12 04:17:20;;;;;;;27.77;24.77;;;15.00;99.90;;;;;;5076683;28;20210;-75
2021/05/12 04:19:46;;;;;;;26.67;22.90;;;15.00;99.90;;;;;;5072472;28;20513;-76
2021/05/12 04:22:13;;;;;;;24.30;21.70;;;14.90;99.90;;;;;;5071704;28;20180;-77
2021/05/12 04:24:40;;;;;;;25.67;22.57;;;14.90;99.90;;;;;;5048702;28;20210;-75
2021/05/12 04:27:05;;;;;;;25.63;22.90;;;14.90;99.90;;;;;;5032446;28;20408;-75
2021/05/12 04:29:31;;;;;;;26.03;23.23;;;14.90;99.90;;;;;;5031933;28;20934;-75
2021/05/12 04:31:57;;;;;;;27.30;24.50;;;14.90;99.90;;;;;;5049825;28;20223;-76
2021/05/12 04:34:23;;;;;;;31.17;27.80;;;14.90;99.90;;;;;;5051514;28;20176;-75
2021/05/12 04:36:48;;;;;;;32.03;28.23;;;14.80;99.90;;;;;;5052444;28;20177;-75
2021/05/12 04:39:14;;;;;;;28.20;23.03;;;14.80;99.90;;;;;;5051794;28;20747;-75
2021/05/12 04:41:40;;;;;;;27.27;24.43;;;14.80;99.90;;;;;;5051790;28;20180;-75
2021/05/12 04:44:06;;;;;;;23.57;21.13;;;14.80;99.90;;;;;;5052020;28;20991;-75
2021/05/12 04:46:32;;;;;;;27.20;23.40;;;14.80;99.90;;;;;;5051203;28;20272;-76
2021/05/12 04:48:58;;;;;;;31.10;22.47;;;14.80;99.80;;;;;;5051813;28;20190;-76
2021/05/12 04:51:23;;;;;;;23.83;21.37;;;14.80;99.80;;;;;;5053897;28;20431;-75
2021/05/12 04:53:49;;;;;;;25.03;22.67;;;14.70;99.80;;;;;;5055943;28;20180;-75
2021/05/12 04:56:15;;;;;;;24.50;20.20;;;14.70;99.80;;;;;;5037779;28;20165;-76
2021/05/12 04:58:41;;;;;;;22.77;20.30;;;14.70;99.70;;;;;;5056162;28;20698;-76
2021/05/12 05:01:08;;;;;;;23.43;20.63;;;14.70;99.50;;;;;;5055341;28;20415;-76
2021/05/12 05:03:40;;;;;;;24.40;21.87;;;14.70;99.30;;;;;;5055118;28;20448;-77
2021/05/12 05:06:06;;;;;;;23.43;19.77;;;14.70;99.30;;;;;;5056347;28;20458;-75
2021/05/12 05:08:31;;;;;;;24.80;19.70;;;14.70;99.10;;;;;;5055305;28;20412;-75
2021/05/12 05:10:57;;;;;;;22.43;19.60;;;14.70;99.10;;;;;;5055794;28;20180;-75
2021/05/12 05:13:23;;;;;;;21.70;18.10;;;14.70;99.10;;;;;;5054921;28;20213;-75
2021/05/12 05:15:49;;;;;;;23.17;20.77;;;14.70;98.90;;;;;;5055283;28;20507;-76
2021/05/12 05:18:15;;;;;;;23.30;20.80;;;14.70;99.10;;;;;;5055228;28;20397;-79
2021/05/12 05:20:41;;;;;;;25.70;23.20;;;14.70;98.70;;;;;;5055698;28;20265;-76
2021/05/12 05:23:07;;;;;;;20.70;18.17;;;14.70;98.50;;;;;;5055654;28;20490;-76
2021/05/12 05:25:33;;;;;;;20.73;18.70;;;14.70;98.30;;;;;;5054965;28;20463;-77
2021/05/12 05:27:59;;;;;;;18.87;16.87;;;14.70;98.40;;;;;;5055437;28;20415;-78
2021/05/12 05:30:25;;;;;;;18.23;16.30;;;14.80;99.00;;;;;;5053782;28;20522;-78
2021/05/12 05:32:51;;;;;;;20.13;18.03;;;15.00;99.80;;;;;;5055388;28;20424;-80
2021/05/12 05:35:17;;;;;;;19.73;17.40;;;15.20;98.90;;;;;;5036949;28;20180;-78
2021/05/12 05:37:43;;;;;;;21.37;19.00;;;15.50;98.10;;;;;;5055592;28;20405;-76
2021/05/12 05:40:09;;;;;;;19.90;17.80;;;15.70;97.50;;;;;;5055417;28;20187;-76
2021/05/12 05:42:35;;;;;;;28.37;20.17;;;15.70;96.30;;;;;;5054677;28;20177;-76
2021/05/12 05:45:00;;;;;;;24.57;19.10;;;15.70;96.20;;;;;;5055213;28;20485;-76
2021/05/12 05:47:26;;;;;;;18.80;16.90;;;15.60;96.10;;;;;;5054663;28;20186;-76
2021/05/12 05:49:52;;;;;;;18.43;16.53;;;15.50;96.30;;;;;;5037187;28;20185;-76
2021/05/12 05:52:18;;;;;;;20.90;18.73;;;15.50;96.50;;;;;;5054506;28;20427;-76
2021/05/12 05:54:44;;;;;;;19.70;16.90;;;15.50;96.30;;;;;;5055331;28;20432;-76
2021/05/12 05:57:14;;;;;;;21.00;18.33;;;15.50;96.50;;;;;;5054966;28;20244;-77
2021/05/12 05:59:41;;;;;;;20.80;17.47;;;15.50;96.50;;;;;;5055062;28;20572;-76
2021/05/12 06:02:07;;;;;;;19.50;17.43;;;15.40;96.80;;;;;;5054056;28;20403;-76
2021/05/12 06:04:33;;;;;;;20.00;17.53;;;15.40;96.80;;;;;;5036392;28;20959;-76
2021/05/12 06:06:59;;;;;;;18.47;16.10;;;15.30;97.00;;;;;;5054288;28;20414;-76
2021/05/12 06:09:24;;;;;;;20.27;18.07;;;15.30;96.80;;;;;;5054029;28;20186;-75
2021/05/12 06:11:52;;;;;;;20.87;17.40;;;15.30;96.70;;;;;;5054288;28;20478;-75
2021/05/12 06:14:19;;;;;;;18.03;16.13;;;15.30;96.30;;;;;;5053966;28;20603;-76
2021/05/12 06:16:46;;;;;;;18.80;16.30;;;15.40;96.60;;;;;;5054166;28;20431;-75
2021/05/12 06:19:11;;;;;;;18.10;15.33;;;15.40;96.80;;;;;;5054322;28;20417;-75
2021/05/12 06:21:37;;;;;;;18.83;16.77;;;15.40;96.90;;;;;;5044603;28;20792;-75
2021/05/12 06:24:03;;;;;;;19.67;15.20;;;15.40;97.20;;;;;;5053302;28;20253;-76
2021/05/12 06:26:29;;;;;;;18.37;15.90;;;15.40;97.60;;;;;;5070995;28;20626;-76
2021/05/12 06:28:55;;;;;;;20.67;16.20;;;15.40;97.40;;;;;;5074376;28;20415;-76
2021/05/12 06:31:21;;;;;;;18.13;15.60;;;15.40;97.20;;;;;;5073738;28;20202;-76
2021/05/12 06:33:47;;;;;;;18.00;16.40;;;15.40;96.70;;;;;;5074160;28;20630;-76
2021/05/12 06:36:16;;;;;;;19.77;17.00;;;15.40;97.50;;;;;;5074609;28;20174;-76
2021/05/12 06:38:42;;;;;;;20.13;16.90;;;15.40;97.70;;;;;;5074269;28;20415;-76
2021/05/12 06:41:08;;;;;;;18.93;16.53;;;15.40;97.80;;;;;;5074187;28;20401;-76
2021/05/12 06:43:33;;;;;;;18.27;15.50;;;15.50;97.70;;;;;;5073514;28;20497;-76
2021/05/12 06:45:59;;;;;;;21.10;16.30;;;15.50;97.90;;;;;;5073704;28;20712;-76
2021/05/12 06:48:25;;;;;;;21.80;16.50;;;15.50;97.50;;;;;;5073430;28;20266;-76
2021/05/12 06:50:51;;;;;;;18.03;15.87;;;15.50;97.50;;;;;;5073629;28;20201;-76
2021/05/12 06:53:30;;;;;;;19.90;14.60;;;15.50;97.10;;;;;;5073273;28;20197;-77
2021/05/12 06:55:57;;;;;;;15.53;13.80;;;15.60;97.30;;;;;;5073947;28;20157;-76
2021/05/12 06:58:23;;;;;;;17.50;15.50;;;15.60;97.30;;;;;;5073307;28;20431;-76
2021/05/12 07:00:51;;;;;;;17.13;14.27;;;15.70;96.80;;;;;;5073519;28;20919;-76
2021/05/12 07:03:22;;;;;;;19.50;15.90;;;15.80;96.80;;;;;;5073229;28;20459;-79
2021/05/12 07:05:52;;;;;;;14.23;12.70;;;15.80;96.60;;;;;;5073527;28;20740;-76
2021/05/12 07:08:18;;;;;;;16.63;15.00;;;15.90;97.00;;;;;;5072995;28;20391;-76
2021/05/12 07:10:44;;;;;;;15.47;13.83;;;15.90;96.90;;;;;;5073604;28;20460;-76
2021/05/12 07:13:10;;;;;;;16.20;12.87;;;16.00;97.50;;;;;;5072297;28;20407;-76
2021/05/12 07:15:36;;;;;;;13.57;11.50;;;16.10;96.50;;;;;;5073020;28;20175;-76
2021/05/12 07:18:01;;;;;;;13.40;10.97;;;16.20;96.00;;;;;;5073500;28;20230;-76
2021/05/12 07:20:27;;;;;;;12.60;11.40;;;16.30;95.30;;;;;;5072585;28;20176;-76
2021/05/12 07:23:01;;;;;;;15.90;14.57;;;16.40;95.00;;;;;;5073299;28;20181;-76
2021/05/12 07:25:30;;;;;;;11.00;9.83;;;16.50;95.60;;;;;;5072839;28;20688;-77
2021/05/12 07:27:56;;;;;;;12.80;10.50;;;16.60;94.60;;;;;;5073252;28;20497;-76
2021/05/12 07:30:21;;;;;;;10.63;8.17;;;16.70;93.60;;;;;;5072705;28;20561;-77
2021/05/12 07:32:49;;;;;;;12.40;8.80;;;16.80;93.10;;;;;;5055349;28;20414;-77
2021/05/12 07:35:15;;;;;;;9.73;8.83;;;16.90;93.00;;;;;;5055337;28;20242;-77
2021/05/12 07:37:41;;;;;;;8.63;7.73;;;17.00;93.10;;;;;;5072482;28;20493;-77
2021/05/12 07:40:07;;;;;;;9.37;8.60;;;17.10;92.00;;;;;;5072977;28;20439;-77
2021/05/12 07:42:34;;;;;;;10.57;7.53;;;17.20;91.60;;;;;;5072455;28;20543;-77
2021/05/12 07:45:00;;;;;;;10.10;7.30;;;17.30;90.30;;;;;;5072587;28;20832;-77
2021/05/12 07:47:26;;;;;;;7.97;6.87;;;17.50;91.50;;;;;;5072382;28;20492;-77
2021/05/12 07:49:52;;;;;;;9.57;6.53;;;17.60;90.90;;;;;;5073102;28;20169;-77
2021/05/12 07:52:18;;;;;;;8.50;6.70;;;17.70;88.70;;;;;;5072902;28;20180;-77
2021/05/12 07:54:45;;;;;;;7.17;6.50;;;17.80;87.90;;;;;;5072444;28;20514;-77
2021/05/12 07:57:12;;;;;;;7.90;6.40;;;18.00;86.70;;;;;;5072935;28;20402;-77
2021/05/12 07:59:38;;;;;;;6.67;5.97;;;18.10;87.00;;;;;;5054410;28;20415;-77
2021/05/12 08:02:04;;;;;;;8.17;7.47;;;18.20;88.40;;;;;;5072784;28;20414;-77
2021/05/12 08:04:34;;;;;;;7.17;6.57;;;18.40;85.50;;;;;;5071738;28;20488;-77
2021/05/12 08:07:00;;;;;;;8.67;6.50;;;18.50;85.50;;;;;;5072736;28;20503;-77
2021/05/12 08:09:26;;;;;;;9.30;8.50;;;18.60;85.30;;;;;;5072043;28;20422;-77
2021/05/12 08:11:52;;;;;;;7.20;6.70;;;18.70;85.40;;;;;;5072664;28;20423;-77
2021/05/12 08:14:18;;;;;;;7.60;5.63;;;18.80;87.20;;;;;;5072685;28;20442;-77
2021/05/12 08:16:47;;;;;;;7.77;7.10;;;18.80;85.00;;;;;;5072017;28;20177;-77
2021/05/12 08:19:16;;;;;;;9.17;6.40;;;19.00;84.90;;;;;;5072570;28;20406;-77
2021/05/12 08:21:48;;;;;;;8.83;7.87;;;19.10;85.70;;;;;;5072263;28;20411;-77
2021/05/12 08:24:14;;;;;;;6.03;5.50;;;19.20;86.00;;;;;;5072519;28;20539;-77
2021/05/12 08:26:40;;;;;;;6.17;5.77;;;19.30;85.70;;;;;;5072077;28;20597;-77
2021/05/12 08:29:07;;;;;;;5.20;4.80;;;19.40;84.40;;;;;;5072501;28;21028;-77
2021/05/12 08:31:33;;;;;;;5.00;4.60;;;19.40;82.60;;;;;;5071807;28;20414;-77
2021/05/12 08:34:02;;;;;;;5.57;5.07;;;19.50;85.30;;;;;;5072062;28;20418;-77
2021/05/12 08:36:28;;;;;;;7.90;7.10;;;19.60;85.70;;;;;;5071843;28;20468;-77
2021/05/12 08:38:54;;;;;;;4.93;4.50;;;19.50;83.60;;;;;;5072637;28;20407;-77
2021/05/12 08:41:20;;;;;;;4.93;4.63;;;19.50;83.20;;;;;;5072402;28;20208;-77
2021/05/12 08:43:46;;;;;;;6.33;4.73;;;19.50;84.80;;;;;;5071758;28;20390;-77
2021/05/12 08:46:18;;;;;;;5.40;5.00;;;19.50;84.20;;;;;;5072313;28;20183;-77
2021/05/12 08:48:46;;;;;;;5.73;5.07;;;19.40;82.00;;;;;;5071734;28;20408;-77
2021/05/12 08:51:12;;;;;;;6.63;6.00;;;19.30;80.60;;;;;;5072512;28;20411;-77
2021/05/12 08:53:39;;;;;;;8.17;7.50;;;19.20;82.80;;;;;;5071653;28;20762;-77
2021/05/12 08:56:06;;;;;;;5.80;5.37;;;19.00;84.30;;;;;;5072177;28;20411;-77
2021/05/12 08:58:32;;;;;;;6.40;6.00;;;18.90;84.70;;;;;;5071551;28;20398;-77
2021/05/12 09:00:58;;;;;;;5.93;5.50;;;19.00;86.60;;;;;;5072152;28;20834;-77
2021/05/12 09:03:27;;;;;;;6.10;5.70;;;19.00;86.40;;;;;;5071744;28;20526;-79
2021/05/12 09:05:56;;;;;;;5.00;4.60;;;19.10;84.10;;;;;;5072125;28;20411;-77
2021/05/12 09:08:25;;;;;;;4.73;4.43;;;19.30;83.60;;;;;;5037388;28;20426;-76
2021/05/12 09:10:51;;;;;;;5.00;4.60;;;19.60;82.70;;;;;;5071622;28;20430;-77
2021/05/12 09:13:43;;;;;;;5.47;4.97;;;19.70;78.90;;;;;;5072068;28;20423;-77
2021/05/12 09:16:35;;;;;;;6.63;6.03;;;19.70;78.30;;;;;;5072177;28;20399;-76
2021/05/12 09:19:05;;;;;;;6.43;6.00;;;19.60;78.50;;;;;;5067687;28;20438;-77
2021/05/12 09:21:58;;;;;;;6.77;5.93;;;19.50;77.80;;;;;;5071521;28;20452;-77
2021/05/12 09:24:30;;;;;;;5.63;4.80;;;19.40;79.20;;;;;;5053923;28;20472;-79
2021/05/12 09:26:59;;;;;;;6.23;5.63;;;19.30;79.20;;;;;;5054280;28;20388;-77
2021/05/12 09:29:34;;;;;;;8.03;7.33;;;19.20;79.50;;;;;;5072257;28;20460;-77
2021/05/12 09:32:13;;;;;;;7.43;6.83;;;19.10;82.10;;;;;;5071992;28;20399;-77
2021/05/12 09:35:01;;;;;;;7.17;6.53;;;19.10;84.40;;;;;;5071075;28;20806;-77
2021/05/12 09:37:36;;;;;;;8.23;7.50;;;19.00;83.70;;;;;;5074203;28;20478;-77
2021/05/12 09:40:15;;;;;;;8.97;8.20;;;19.00;82.60;;;;;;5075533;28;20383;-77
2021/05/12 09:42:42;;;;;;;8.67;8.07;;;19.00;83.20;;;;;;5074769;28;20426;-77
2021/05/12 09:45:16;;;;;;;8.00;7.30;;;18.90;85.80;;;;;;5075455;28;20455;-76
2021/05/12 09:47:50;;;;;;;11.33;6.83;;;18.90;83.20;;;;;;5074717;28;20446;-77
2021/05/12 09:50:25;;;;;;;7.23;5.87;;;18.90;84.30;;;;;;5075177;28;20494;-77
2021/05/12 09:52:56;;;;;;;5.53;5.10;;;18.90;81.10;;;;;;5075250;28;20859;-77
2021/05/12 09:55:36;;;;;;;5.30;4.90;;;18.90;79.10;;;;;;5074769;28;20871;-76
2021/05/12 09:58:10;;;;;;;7.30;6.60;;;18.90;75.70;;;;;;5075110;28;20391;-76
2021/05/12 10:00:43;;;;;;;6.57;6.13;;;18.90;76.90;;;;;;5074587;28;20395;-77
2021/05/12 10:03:11;;;;;;;6.60;6.10;;;18.90;76.20;;;;;;5074932;28;20438;-77
2021/05/12 10:05:57;;;;;;;7.43;6.93;;;18.80;75.60;;;;;;5074382;28;20461;-76
2021/05/12 10:08:28;;;;;;;8.67;7.87;;;18.80;77.00;;;;;;5074862;28;20411;-77
2021/05/12 10:11:02;;;;;;;8.63;8.03;;;18.70;77.80;;;;;;5074922;28;20412;-77
2021/05/12 10:13:29;;;;;;;8.23;7.60;;;18.60;80.00;;;;;;5074673;28;20420;-80
2021/05/12 10:15:55;;;;;;;9.90;9.10;;;18.50;81.20;;;;;;5074302;28;20689;-76
2021/05/12 10:18:21;;;;;;;8.40;7.80;;;18.50;81.30;;;;;;5074668;28;20779;-77
2021/05/12 10:20:47;;;;;;;8.20;7.50;;;18.50;82.80;;;;;;5073976;28;20456;-76
2021/05/12 10:23:13;;;;;;;8.50;7.90;;;18.50;83.80;;;;;;5074500;28;20196;-77
2021/05/12 10:25:39;;;;;;;8.67;7.87;;;18.50;84.50;;;;;;5073847;28;20947;-77
2021/05/12 10:28:07;;;;;;;11.70;10.70;;;18.60;85.10;;;;;;5074600;28;20185;-76
2021/05/12 10:30:34;;;;;;;10.23;8.53;;;18.70;87.50;;;;;;5073869;28;20414;-77
2021/05/12 10:32:59;;;;;;;8.60;7.90;;;18.70;81.00;;;;;;5074421;28;20404;-77
2021/05/12 10:35:39;;;;;;;12.10;11.30;;;18.80;82.90;;;;;;5073983;28;20407;-77
2021/05/12 10:38:25;;;;;;;8.33;7.63;;;19.00;83.00;;;;;;5074268;28;20652;-77
2021/05/12 10:40:51;;;;;;;8.30;7.50;;;19.10;81.80;;;;;;5072763;28;20471;-77
2021/05/12 10:43:27;;;;;;;8.30;7.50;;;19.20;82.50;;;;;;5073978;28;20926;-77
2021/05/12 10:46:02;;;;;;;9.00;8.20;;;19.20;80.70;;;;;;5073794;28;20629;-77
2021/05/12 10:48:33;;;;;;;9.00;8.23;;;19.20;80.20;;;;;;5074161;28;20402;-77
2021/05/12 10:51:02;;;;;;;8.47;7.63;;;19.20;78.40;;;;;;5073884;28;20472;-77
2021/05/12 10:53:32;;;;;;;8.07;7.47;;;19.20;80.20;;;;;;5073813;28;20423;-76
2021/05/12 10:55:58;;;;;;;8.37;7.53;;;19.10;77.80;;;;;;5073970;28;20414;-77
2021/05/12 10:58:26;;;;;;;8.30;7.70;;;19.00;77.30;;;;;;5073964;28;20472;-77
2021/05/12 11:01:02;;;;;;;8.50;7.70;;;18.90;78.90;;;;;;5073024;28;20930;-77
2021/05/12 11:03:52;;;;;;;7.87;7.17;;;18.90;79.30;;;;;;5073698;28;20527;-76
2021/05/12 11:06:25;;;;;;;9.23;8.63;;;18.80;80.00;;;;;;5073753;28;20449;-77
2021/05/12 11:09:07;;;;;;;9.50;8.90;;;18.80;79.00;;;;;;5073080;28;21012;-77
2021/05/12 11:11:33;;;;;;;8.00;7.50;;;18.70;80.00;;;;;;5073103;28;20411;-77
2021/05/12 11:14:25;;;;;;;7.73;7.03;;;18.60;79.90;;;;;;5073688;28;20923;-77
2021/05/12 11:17:08;;;;;;;7.20;6.60;;;18.60;79.80;;;;;;5073042;28;20812;-76
2021/05/12 11:19:39;;;;;;;8.43;7.70;;;18.60;81.30;;;;;;5072866;28;20455;-77
2021/05/12 11:33:28;;;;;;;8.07;7.37;;;18.40;81.00;;;;;;5073344;28;20486;-76
2021/05/12 11:36:06;;;;;;;7.90;7.40;;;18.50;81.10;;;;;;5072289;28;20561;-77
2021/05/12 11:38:32;;;;;;;6.80;6.20;;;18.50;80.60;;;;;;5073260;28;20414;-77
2021/05/12 11:41:02;;;;;;;7.47;6.87;;;18.50;83.00;;;;;;5073131;28;20419;-77
2021/05/12 11:44:01;;;;;;;7.30;6.80;;;18.60;81.70;;;;;;5072961;28;20447;-77
2021/05/12 11:46:29;;;;;;;6.67;6.03;;;18.70;82.30;;;;;;5073131;28;20496;-77
2021/05/12 11:49:01;;;;;;;6.47;6.07;;;19.00;83.30;;;;;;5072463;28;20422;-77
2021/05/12 11:51:45;;;;;;;7.00;6.40;;;19.20;79.80;;;;;;5072931;28;20396;-77
2021/05/12 11:54:17;;;;;;;7.03;6.43;;;19.40;76.00;;;;;;5072083;28;20406;-77
2021/05/12 11:56:45;;;;;;;7.63;6.10;;;19.30;76.00;;;;;;5071838;28;20415;-77
2021/05/12 11:59:23;;;;;;;6.97;6.43;;;19.40;78.70;;;;;;5072457;28;20415;-77
2021/05/12 12:01:56;;;;;;;7.57;6.87;;;19.40;75.20;;;;;;5071753;28;20472;-77
2021/05/12 12:04:30;;;;;;;7.13;6.53;;;19.40;74.90;;;;;;5072297;28;20803;-77
2021/05/12 12:06:57;;;;;;;6.13;5.63;;;19.40;75.60;;;;;;5071678;28;20407;-77
2021/05/12 12:09:29;;;;;;;6.30;5.67;;;19.40;76.90;;;;;;5072819;28;20767;-77
2021/05/12 12:11:56;;;;;;;6.77;5.93;;;19.40;79.00;;;;;;5071765;28;20423;-76
2021/05/12 12:14:32;;;;;;;6.57;6.10;;;19.40;77.70;;;;;;5072809;28;20897;-78
2021/05/12 12:16:59;;;;;;;6.47;5.60;;;19.50;79.10;;;;;;5072011;28;20403;-77
2021/05/12 12:19:25;;;;;;;7.10;6.50;;;19.50;79.50;;;;;;5072542;28;20498;-77
2021/05/12 12:21:54;;;;;;;8.07;6.57;;;19.40;79.80;;;;;;5071961;28;20879;-77
2021/05/12 12:24:25;;;;;;;10.13;9.23;;;19.40;81.10;;;;;;5072410;28;20455;-77
2021/05/12 12:26:55;;;;;;;10.87;9.97;;;19.40;80.50;;;;;;5072242;28;20784;-77
2021/05/12 12:29:28;;;;;;;10.10;9.37;;;19.50;81.80;;;;;;5072240;28;20464;-77
2021/05/12 12:32:03;;;;;;;10.83;9.90;;;19.50;80.30;;;;;;5071090;28;20412;-77
2021/05/12 12:34:34;;;;;;;9.90;9.20;;;19.40;78.50;;;;;;5071254;28;20460;-77
2021/05/12 12:37:18;;;;;;;10.23;9.33;;;19.50;80.50;;;;;;5071823;28;20423;-77
2021/05/12 12:39:58;;;;;;;10.67;9.73;;;19.60;82.00;;;;;;5071903;28;20503;-77
2021/05/12 12:42:28;;;;;;;13.07;12.10;;;19.60;79.30;;;;;;5072552;28;20388;-77
2021/05/12 12:44:55;;;;;;;11.03;9.93;;;19.50;79.20;;;;;;5071685;28;20569;-77
2021/05/12 12:47:22;;;;;;;12.27;11.27;;;19.50;81.00;;;;;;5072717;28;20878;-77
2021/05/12 12:49:55;;;;;;;13.30;12.30;;;19.30;79.10;;;;;;5071800;28;20418;-77
2021/05/12 12:52:24;;;;;;;14.27;13.07;;;19.30;80.40;;;;;;5072310;28;20416;-77